sensor_id;sensor_type;location;lat;lon;timestamp;P1;durP1;ratioP1;P2;durP2;ratioP2
50337;SDS011;46221;51.178;5.900;2022-09-09T00:00:06;1.10;;;0.40;;
50337;SDS011;46221;51.178;5.900;2022-09-09T00:02:32;2.33;;;0.40;;
50337;SDS011;46221;51.178;5.900;2022-09-09T00:05:14;1.77;;;0.40;;
50337;SDS011;46221;51.178;5.900;2022-09-09T00:07:48;2.38;;;0.52;;
50337;SDS011;46221;51.178;5.900;2022-09-09T00:10:17;1.60;;;0.40;;
50337;SDS011;46221;51.178;5.900;2022-09-09T00:13:04;2.30;;;0.47;;
50337;SDS011;46221;51.178;5.900;2022-09-09T00:15:38;2.10;;;0.50;;
50337;SDS011;46221;51.178;5.900;2022-09-09T00:18:24;1.25;;;0.40;;
50337;SDS011;46221;51.178;5.900;2022-09-09T00:20:55;1.20;;;0.30;;
50337;SDS011;46221;51.178;5.900;2022-09-09T00:23:25;1.13;;;0.40;;
50337;SDS011;46221;51.178;5.900;2022-09-09T00:28:39;1.67;;;0.47;;
50337;SDS011;46221;51.178;5.900;2022-09-09T00:31:11;1.17;;;0.50;;
50337;SDS011;46221;51.178;5.900;2022-09-09T00:33:37;0.85;;;0.30;;
50337;SDS011;46221;51.178;5.900;2022-09-09T00:36:04;2.17;;;0.55;;
50337;SDS011;46221;51.178;5.900;2022-09-09T00:38:40;2.20;;;0.45;;
50337;SDS011;46221;51.178;5.900;2022-09-09T00:43:40;4.57;;;0.82;;
50337;SDS011;46221;51.178;5.900;2022-09-09T00:46:23;0.95;;;0.50;;
50337;SDS011;46221;51.178;5.900;2022-09-09T00:52:03;1.55;;;0.50;;
50337;SDS011;46221;51.178;5.900;2022-09-09T00:54:38;1.85;;;0.70;;
50337;SDS011;46221;51.178;5.900;2022-09-09T00:59:51;1.50;;;0.50;;
50337;SDS011;46221;51.178;5.900;2022-09-09T01:04:44;1.75;;;0.85;;
50337;SDS011;46221;51.178;5.900;2022-09-09T01:07:16;1.60;;;0.50;;
50337;SDS011;46221;51.178;5.900;2022-09-09T01:12:26;2.77;;;0.60;;
50337;SDS011;46221;51.178;5.900;2022-09-09T01:14:56;1.17;;;0.40;;
50337;SDS011;46221;51.178;5.900;2022-09-09T01:20:19;1.42;;;0.50;;
50337;SDS011;46221;51.178;5.900;2022-09-09T01:28:16;1.73;;;0.70;;
50337;SDS011;46221;51.178;5.900;2022-09-09T01:33:13;3.22;;;0.65;;
50337;SDS011;46221;51.178;5.900;2022-09-09T01:35:45;2.97;;;0.60;;
50337;SDS011;46221;51.178;5.900;2022-09-09T01:38:14;1.85;;;0.80;;
50337;SDS011;46221;51.178;5.900;2022-09-09T01:40:40;2.65;;;0.70;;
50337;SDS011;46221;51.178;5.900;2022-09-09T01:43:07;4.18;;;0.68;;
50337;SDS011;46221;51.178;5.900;2022-09-09T01:45:33;1.23;;;0.45;;
50337;SDS011;46221;51.178;5.900;2022-09-09T01:48:00;1.55;;;0.50;;
50337;SDS011;46221;51.178;5.900;2022-09-09T01:50:26;2.75;;;0.68;;
50337;SDS011;46221;51.178;5.900;2022-09-09T01:52:53;0.88;;;0.30;;
50337;SDS011;46221;51.178;5.900;2022-09-09T01:55:23;0.93;;;0.43;;
50337;SDS011;46221;51.178;5.900;2022-09-09T02:00:20;3.50;;;0.63;;
50337;SDS011;46221;51.178;5.900;2022-09-09T02:03:05;0.85;;;0.30;;
50337;SDS011;46221;51.178;5.900;2022-09-09T02:05:41;2.20;;;0.60;;
50337;SDS011;46221;51.178;5.900;2022-09-09T02:13:11;2.00;;;0.80;;
50337;SDS011;46221;51.178;5.900;2022-09-09T02:18:05;1.05;;;0.40;;
50337;SDS011;46221;51.178;5.900;2022-09-09T02:20:34;2.85;;;0.63;;
50337;SDS011;46221;51.178;5.900;2022-09-09T02:23:03;3.67;;;0.70;;
50337;SDS011;46221;51.178;5.900;2022-09-09T02:25:30;4.43;;;0.63;;
50337;SDS011;46221;51.178;5.900;2022-09-09T02:27:57;2.40;;;0.70;;
50337;SDS011;46221;51.178;5.900;2022-09-09T02:30:24;3.42;;;0.45;;
50337;SDS011;46221;51.178;5.900;2022-09-09T02:32:52;1.95;;;0.50;;
50337;SDS011;46221;51.178;5.900;2022-09-09T02:35:23;3.00;;;0.60;;
50337;SDS011;46221;51.178;5.900;2022-09-09T02:37:51;2.65;;;0.63;;
50337;SDS011;46221;51.178;5.900;2022-09-09T02:40:18;1.92;;;0.50;;
50337;SDS011;46221;51.178;5.900;2022-09-09T02:42:47;2.10;;;0.63;;
50337;SDS011;46221;51.178;5.900;2022-09-09T02:45:14;2.17;;;0.50;;
50337;SDS011;46221;51.178;5.900;2022-09-09T02:52:49;1.80;;;0.60;;
50337;SDS011;46221;51.178;5.900;2022-09-09T02:55:24;2.60;;;0.57;;
50337;SDS011;46221;51.178;5.900;2022-09-09T02:57:53;1.30;;;0.50;;
50337;SDS011;46221;51.178;5.900;2022-09-09T03:00:24;0.95;;;0.30;;
50337;SDS011;46221;51.178;5.900;2022-09-09T03:02:50;2.13;;;0.65;;
50337;SDS011;46221;51.178;5.900;2022-09-09T03:05:17;3.20;;;0.55;;
50337;SDS011;46221;51.178;5.900;2022-09-09T03:07:43;1.63;;;0.60;;
50337;SDS011;46221;51.178;5.900;2022-09-09T03:10:09;2.13;;;0.77;;
50337;SDS011;46221;51.178;5.900;2022-09-09T03:12:36;2.10;;;0.73;;
50337;SDS011;46221;51.178;5.900;2022-09-09T03:15:02;1.95;;;0.80;;
50337;SDS011;46221;51.178;5.900;2022-09-09T03:17:29;2.85;;;0.70;;
50337;SDS011;46221;51.178;5.900;2022-09-09T03:19:55;2.35;;;0.40;;
50337;SDS011;46221;51.178;5.900;2022-09-09T03:22:24;2.45;;;0.57;;
50337;SDS011;46221;51.178;5.900;2022-09-09T03:24:51;1.30;;;0.50;;
50337;SDS011;46221;51.178;5.900;2022-09-09T03:27:17;2.97;;;0.70;;
50337;SDS011;46221;51.178;5.900;2022-09-09T03:29:45;2.15;;;0.52;;
50337;SDS011;46221;51.178;5.900;2022-09-09T03:32:12;3.38;;;0.90;;
50337;SDS011;46221;51.178;5.900;2022-09-09T03:34:39;2.40;;;0.60;;
50337;SDS011;46221;51.178;5.900;2022-09-09T03:37:06;2.28;;;0.63;;
50337;SDS011;46221;51.178;5.900;2022-09-09T03:39:32;2.75;;;0.50;;
50337;SDS011;46221;51.178;5.900;2022-09-09T03:41:59;2.30;;;0.50;;
50337;SDS011;46221;51.178;5.900;2022-09-09T03:44:25;2.15;;;0.45;;
50337;SDS011;46221;51.178;5.900;2022-09-09T03:46:51;2.30;;;0.50;;
50337;SDS011;46221;51.178;5.900;2022-09-09T03:49:17;1.00;;;0.40;;
50337;SDS011;46221;51.178;5.900;2022-09-09T03:51:46;2.80;;;0.80;;
50337;SDS011;46221;51.178;5.900;2022-09-09T03:54:12;2.15;;;0.60;;
50337;SDS011;46221;51.178;5.900;2022-09-09T03:56:38;2.17;;;0.60;;
50337;SDS011;46221;51.178;5.900;2022-09-09T03:59:07;2.50;;;0.75;;
50337;SDS011;46221;51.178;5.900;2022-09-09T04:01:34;2.13;;;0.60;;
50337;SDS011;46221;51.178;5.900;2022-09-09T04:04:01;3.30;;;0.95;;
50337;SDS011;46221;51.178;5.900;2022-09-09T04:06:28;5.75;;;1.27;;
50337;SDS011;46221;51.178;5.900;2022-09-09T04:08:55;2.08;;;0.60;;
50337;SDS011;46221;51.178;5.900;2022-09-09T04:11:22;1.70;;;0.50;;
50337;SDS011;46221;51.178;5.900;2022-09-09T04:13:48;1.90;;;0.55;;
50337;SDS011;46221;51.178;5.900;2022-09-09T04:16:15;1.55;;;0.50;;
50337;SDS011;46221;51.178;5.900;2022-09-09T04:18:42;3.80;;;0.60;;
50337;SDS011;46221;51.178;5.900;2022-09-09T04:21:08;2.33;;;0.60;;
50337;SDS011;46221;51.178;5.900;2022-09-09T04:23:35;5.10;;;0.85;;
50337;SDS011;46221;51.178;5.900;2022-09-09T04:26:02;3.45;;;0.82;;
50337;SDS011;46221;51.178;5.900;2022-09-09T04:28:30;3.05;;;0.82;;
50337;SDS011;46221;51.178;5.900;2022-09-09T04:31:03;2.70;;;0.70;;
50337;SDS011;46221;51.178;5.900;2022-09-09T04:33:29;2.65;;;0.70;;
50337;SDS011;46221;51.178;5.900;2022-09-09T04:35:57;2.22;;;0.73;;
50337;SDS011;46221;51.178;5.900;2022-09-09T04:38:23;3.08;;;0.70;;
50337;SDS011;46221;51.178;5.900;2022-09-09T04:40:50;3.55;;;0.90;;
50337;SDS011;46221;51.178;5.900;2022-09-09T04:43:17;2.22;;;0.80;;
50337;SDS011;46221;51.178;5.900;2022-09-09T04:45:46;5.15;;;0.90;;
50337;SDS011;46221;51.178;5.900;2022-09-09T04:48:13;2.25;;;0.60;;
50337;SDS011;46221;51.178;5.900;2022-09-09T04:50:39;3.72;;;0.80;;
50337;SDS011;46221;51.178;5.900;2022-09-09T04:53:09;2.88;;;1.00;;
50337;SDS011;46221;51.178;5.900;2022-09-09T04:55:35;4.20;;;0.60;;
50337;SDS011;46221;51.178;5.900;2022-09-09T04:58:05;2.83;;;0.60;;
50337;SDS011;46221;51.178;5.900;2022-09-09T05:00:32;2.30;;;0.73;;
50337;SDS011;46221;51.178;5.900;2022-09-09T05:03:01;3.15;;;0.70;;
50337;SDS011;46221;51.178;5.900;2022-09-09T05:05:28;4.95;;;0.80;;
50337;SDS011;46221;51.178;5.900;2022-09-09T05:07:54;2.97;;;0.90;;
50337;SDS011;46221;51.178;5.900;2022-09-09T05:10:26;3.25;;;1.00;;
50337;SDS011;46221;51.178;5.900;2022-09-09T05:12:52;4.15;;;0.80;;
50337;SDS011;46221;51.178;5.900;2022-09-09T05:15:19;4.53;;;1.10;;
50337;SDS011;46221;51.178;5.900;2022-09-09T05:17:47;5.43;;;1.15;;
50337;SDS011;46221;51.178;5.900;2022-09-09T05:20:14;5.70;;;0.88;;
50337;SDS011;46221;51.178;5.900;2022-09-09T05:22:42;5.40;;;1.20;;
50337;SDS011;46221;51.178;5.900;2022-09-09T05:25:08;6.82;;;1.42;;
50337;SDS011;46221;51.178;5.900;2022-09-09T05:27:35;5.97;;;1.00;;
50337;SDS011;46221;51.178;5.900;2022-09-09T05:30:02;5.55;;;1.23;;
50337;SDS011;46221;51.178;5.900;2022-09-09T05:32:29;5.25;;;1.55;;
50337;SDS011;46221;51.178;5.900;2022-09-09T05:34:58;4.65;;;1.60;;
50337;SDS011;46221;51.178;5.900;2022-09-09T05:37:25;5.20;;;1.25;;
50337;SDS011;46221;51.178;5.900;2022-09-09T05:39:51;5.45;;;0.90;;
50337;SDS011;46221;51.178;5.900;2022-09-09T05:42:17;4.30;;;1.40;;
50337;SDS011;46221;51.178;5.900;2022-09-09T05:44:44;4.10;;;0.90;;
50337;SDS011;46221;51.178;5.900;2022-09-09T05:47:11;4.35;;;0.90;;
50337;SDS011;46221;51.178;5.900;2022-09-09T05:49:37;3.05;;;1.02;;
50337;SDS011;46221;51.178;5.900;2022-09-09T05:52:04;4.45;;;1.45;;
50337;SDS011;46221;51.178;5.900;2022-09-09T05:54:30;4.90;;;1.45;;
50337;SDS011;46221;51.178;5.900;2022-09-09T05:56:56;4.30;;;1.60;;
50337;SDS011;46221;51.178;5.900;2022-09-09T05:59:23;4.68;;;1.05;;
50337;SDS011;46221;51.178;5.900;2022-09-09T06:01:49;4.15;;;1.13;;
50337;SDS011;46221;51.178;5.900;2022-09-09T06:04:16;4.00;;;1.00;;
50337;SDS011;46221;51.178;5.900;2022-09-09T06:06:42;6.30;;;1.75;;
50337;SDS011;46221;51.178;5.900;2022-09-09T06:09:09;5.22;;;1.20;;
50337;SDS011;46221;51.178;5.900;2022-09-09T06:11:37;7.93;;;1.23;;
50337;SDS011;46221;51.178;5.900;2022-09-09T06:14:04;4.22;;;1.10;;
50337;SDS011;46221;51.178;5.900;2022-09-09T06:16:30;4.38;;;0.90;;
50337;SDS011;46221;51.178;5.900;2022-09-09T06:18:58;6.45;;;1.05;;
50337;SDS011;46221;51.178;5.900;2022-09-09T06:21:28;5.07;;;1.27;;
50337;SDS011;46221;51.178;5.900;2022-09-09T06:23:56;5.47;;;1.00;;
50337;SDS011;46221;51.178;5.900;2022-09-09T06:26:30;4.45;;;1.27;;
50337;SDS011;46221;51.178;5.900;2022-09-09T06:28:57;4.72;;;1.13;;
50337;SDS011;46221;51.178;5.900;2022-09-09T06:31:25;4.72;;;1.45;;
50337;SDS011;46221;51.178;5.900;2022-09-09T06:33:55;4.40;;;1.00;;
50337;SDS011;46221;51.178;5.900;2022-09-09T06:36:23;5.13;;;1.17;;
50337;SDS011;46221;51.178;5.900;2022-09-09T06:38:49;5.38;;;1.15;;
50337;SDS011;46221;51.178;5.900;2022-09-09T06:41:16;3.25;;;1.10;;
50337;SDS011;46221;51.178;5.900;2022-09-09T06:43:44;3.67;;;1.08;;
50337;SDS011;46221;51.178;5.900;2022-09-09T06:46:12;5.25;;;0.90;;
50337;SDS011;46221;51.178;5.900;2022-09-09T06:48:40;6.10;;;1.35;;
50337;SDS011;46221;51.178;5.900;2022-09-09T06:51:10;4.82;;;1.40;;
50337;SDS011;46221;51.178;5.900;2022-09-09T06:53:40;2.67;;;0.85;;
50337;SDS011;46221;51.178;5.900;2022-09-09T06:58:43;4.45;;;1.08;;
50337;SDS011;46221;51.178;5.900;2022-09-09T07:01:13;3.63;;;1.08;;
50337;SDS011;46221;51.178;5.900;2022-09-09T07:03:41;4.72;;;1.02;;
50337;SDS011;46221;51.178;5.900;2022-09-09T07:06:08;3.70;;;1.00;;
50337;SDS011;46221;51.178;5.900;2022-09-09T07:08:40;5.63;;;1.48;;
50337;SDS011;46221;51.178;5.900;2022-09-09T07:11:07;4.25;;;0.93;;
50337;SDS011;46221;51.178;5.900;2022-09-09T07:13:37;2.15;;;0.80;;
50337;SDS011;46221;51.178;5.900;2022-09-09T07:16:05;7.25;;;1.65;;
50337;SDS011;46221;51.178;5.900;2022-09-09T07:18:32;3.65;;;1.02;;
50337;SDS011;46221;51.178;5.900;2022-09-09T07:21:00;3.08;;;1.08;;
50337;SDS011;46221;51.178;5.900;2022-09-09T07:23:27;3.55;;;1.30;;
50337;SDS011;46221;51.178;5.900;2022-09-09T07:25:58;4.25;;;1.05;;
50337;SDS011;46221;51.178;5.900;2022-09-09T07:28:25;2.88;;;1.27;;
50337;SDS011;46221;51.178;5.900;2022-09-09T07:30:55;5.07;;;1.15;;
50337;SDS011;46221;51.178;5.900;2022-09-09T07:33:22;5.45;;;1.00;;
50337;SDS011;46221;51.178;5.900;2022-09-09T07:35:49;4.47;;;1.20;;
50337;SDS011;46221;51.178;5.900;2022-09-09T07:38:15;4.85;;;1.17;;
50337;SDS011;46221;51.178;5.900;2022-09-09T07:40:42;3.65;;;1.17;;
50337;SDS011;46221;51.178;5.900;2022-09-09T07:43:09;3.83;;;0.77;;
50337;SDS011;46221;51.178;5.900;2022-09-09T07:45:39;3.92;;;1.25;;
50337;SDS011;46221;51.178;5.900;2022-09-09T07:48:06;3.97;;;1.10;;
50337;SDS011;46221;51.178;5.900;2022-09-09T07:50:32;5.68;;;1.20;;
50337;SDS011;46221;51.178;5.900;2022-09-09T07:52:59;5.45;;;1.15;;
50337;SDS011;46221;51.178;5.900;2022-09-09T07:55:25;5.20;;;1.02;;
50337;SDS011;46221;51.178;5.900;2022-09-09T07:57:52;4.82;;;1.38;;
50337;SDS011;46221;51.178;5.900;2022-09-09T08:00:19;7.85;;;1.90;;
50337;SDS011;46221;51.178;5.900;2022-09-09T08:02:48;5.75;;;1.83;;
50337;SDS011;46221;51.178;5.900;2022-09-09T08:05:14;7.57;;;1.40;;
50337;SDS011;46221;51.178;5.900;2022-09-09T08:07:41;7.53;;;1.80;;
50337;SDS011;46221;51.178;5.900;2022-09-09T08:10:07;6.53;;;1.80;;
50337;SDS011;46221;51.178;5.900;2022-09-09T08:12:33;7.65;;;1.40;;
50337;SDS011;46221;51.178;5.900;2022-09-09T08:15:01;4.35;;;1.02;;
50337;SDS011;46221;51.178;5.900;2022-09-09T08:17:27;5.15;;;1.67;;
50337;SDS011;46221;51.178;5.900;2022-09-09T08:19:54;5.40;;;2.00;;
50337;SDS011;46221;51.178;5.900;2022-09-09T08:22:20;5.55;;;1.40;;
50337;SDS011;46221;51.178;5.900;2022-09-09T08:24:48;4.82;;;1.40;;
50337;SDS011;46221;51.178;5.900;2022-09-09T08:27:14;5.45;;;1.40;;
50337;SDS011;46221;51.178;5.900;2022-09-09T08:29:40;4.85;;;1.33;;
50337;SDS011;46221;51.178;5.900;2022-09-09T08:32:07;5.15;;;1.25;;
50337;SDS011;46221;51.178;5.900;2022-09-09T08:34:33;5.35;;;1.35;;
50337;SDS011;46221;51.178;5.900;2022-09-09T08:37:00;6.88;;;1.48;;
50337;SDS011;46221;51.178;5.900;2022-09-09T08:39:26;4.90;;;0.98;;
50337;SDS011;46221;51.178;5.900;2022-09-09T08:44:50;5.00;;;1.30;;
50337;SDS011;46221;51.178;5.900;2022-09-09T08:47:18;4.22;;;1.27;;
50337;SDS011;46221;51.178;5.900;2022-09-09T08:50:00;3.83;;;1.05;;
50337;SDS011;46221;51.178;5.900;2022-09-09T08:52:30;7.03;;;1.50;;
50337;SDS011;46221;51.178;5.900;2022-09-09T08:54:59;4.70;;;0.82;;
50337;SDS011;46221;51.178;5.900;2022-09-09T08:57:28;3.67;;;1.10;;
50337;SDS011;46221;51.178;5.900;2022-09-09T08:59:57;5.05;;;1.00;;
50337;SDS011;46221;51.178;5.900;2022-09-09T09:04:58;2.92;;;0.90;;
50337;SDS011;46221;51.178;5.900;2022-09-09T09:10:21;4.75;;;1.45;;
50337;SDS011;46221;51.178;5.900;2022-09-09T09:13:12;4.75;;;1.27;;
50337;SDS011;46221;51.178;5.900;2022-09-09T09:15:39;3.95;;;1.20;;
50337;SDS011;46221;51.178;5.900;2022-09-09T09:18:07;4.40;;;1.35;;
50337;SDS011;46221;51.178;5.900;2022-09-09T09:23:43;3.58;;;0.90;;
50337;SDS011;46221;51.178;5.900;2022-09-09T09:26:11;3.55;;;1.00;;
50337;SDS011;46221;51.178;5.900;2022-09-09T09:28:38;5.57;;;1.23;;
50337;SDS011;46221;51.178;5.900;2022-09-09T09:31:11;4.20;;;1.08;;
50337;SDS011;46221;51.178;5.900;2022-09-09T09:33:51;3.88;;;0.93;;
50337;SDS011;46221;51.178;5.900;2022-09-09T09:36:19;3.88;;;1.10;;
50337;SDS011;46221;51.178;5.900;2022-09-09T09:38:56;4.00;;;0.98;;
50337;SDS011;46221;51.178;5.900;2022-09-09T09:41:42;3.58;;;1.08;;
50337;SDS011;46221;51.178;5.900;2022-09-09T09:47:10;6.60;;;1.10;;
50337;SDS011;46221;51.178;5.900;2022-09-09T09:49:37;4.13;;;1.00;;
50337;SDS011;46221;51.178;5.900;2022-09-09T09:52:04;3.72;;;1.13;;
50337;SDS011;46221;51.178;5.900;2022-09-09T09:54:39;3.33;;;0.95;;
50337;SDS011;46221;51.178;5.900;2022-09-09T09:57:08;5.22;;;1.20;;
50337;SDS011;46221;51.178;5.900;2022-09-09T09:59:35;5.07;;;1.20;;
50337;SDS011;46221;51.178;5.900;2022-09-09T10:02:16;4.85;;;1.50;;
50337;SDS011;46221;51.178;5.900;2022-09-09T10:04:43;4.63;;;1.10;;
50337;SDS011;46221;51.178;5.900;2022-09-09T10:07:12;5.35;;;1.10;;
50337;SDS011;46221;51.178;5.900;2022-09-09T10:09:38;5.93;;;1.27;;
50337;SDS011;46221;51.178;5.900;2022-09-09T10:22:26;7.50;;;1.20;;
50337;SDS011;46221;51.178;5.900;2022-09-09T10:40:40;9.27;;;2.08;;
50337;SDS011;46221;51.178;5.900;2022-09-09T10:43:31;5.53;;;1.02;;
50337;SDS011;46221;51.178;5.900;2022-09-09T10:49:03;4.30;;;1.10;;
50337;SDS011;46221;51.178;5.900;2022-09-09T10:56:49;3.90;;;1.08;;
50337;SDS011;46221;51.178;5.900;2022-09-09T10:59:26;4.38;;;1.55;;
50337;SDS011;46221;51.178;5.900;2022-09-09T11:02:03;4.03;;;1.08;;
50337;SDS011;46221;51.178;5.900;2022-09-09T11:04:37;4.57;;;1.15;;
50337;SDS011;46221;51.178;5.900;2022-09-09T11:07:07;5.97;;;1.42;;
50337;SDS011;46221;51.178;5.900;2022-09-09T11:09:38;6.85;;;1.20;;
50337;SDS011;46221;51.178;5.900;2022-09-09T11:12:06;5.80;;;1.30;;
50337;SDS011;46221;51.178;5.900;2022-09-09T11:14:43;6.47;;;1.15;;
50337;SDS011;46221;51.178;5.900;2022-09-09T11:17:15;6.07;;;2.15;;
50337;SDS011;46221;51.178;5.900;2022-09-09T11:19:43;5.97;;;1.10;;
50337;SDS011;46221;51.178;5.900;2022-09-09T11:22:15;2.85;;;1.17;;
50337;SDS011;46221;51.178;5.900;2022-09-09T11:24:59;5.55;;;1.60;;
50337;SDS011;46221;51.178;5.900;2022-09-09T11:27:37;5.00;;;1.02;;
50337;SDS011;46221;51.178;5.900;2022-09-09T11:32:44;5.15;;;1.55;;
50337;SDS011;46221;51.178;5.900;2022-09-09T11:38:13;4.50;;;1.02;;
50337;SDS011;46221;51.178;5.900;2022-09-09T11:40:40;3.83;;;0.98;;
50337;SDS011;46221;51.178;5.900;2022-09-09T11:45:49;2.35;;;0.80;;
50337;SDS011;46221;51.178;5.900;2022-09-09T11:51:06;5.78;;;1.45;;
50337;SDS011;46221;51.178;5.900;2022-09-09T11:56:23;3.45;;;1.00;;
50337;SDS011;46221;51.178;5.900;2022-09-09T11:59:33;3.38;;;0.95;;
50337;SDS011;46221;51.178;5.900;2022-09-09T12:01:43;3.13;;;0.80;;
50337;SDS011;46221;51.178;5.900;2022-09-09T12:04:12;3.13;;;1.33;;
50337;SDS011;46221;51.178;5.900;2022-09-09T12:06:53;4.00;;;1.33;;
50337;SDS011;46221;51.178;5.900;2022-09-09T12:14:43;4.15;;;1.40;;
50337;SDS011;46221;51.178;5.900;2022-09-09T12:17:17;5.60;;;1.33;;
50337;SDS011;46221;51.178;5.900;2022-09-09T12:19:45;3.70;;;1.00;;
50337;SDS011;46221;51.178;5.900;2022-09-09T12:22:25;6.85;;;1.27;;
50337;SDS011;46221;51.178;5.900;2022-09-09T12:25:03;3.67;;;1.08;;
50337;SDS011;46221;51.178;5.900;2022-09-09T12:30:23;4.32;;;1.20;;
50337;SDS011;46221;51.178;5.900;2022-09-09T12:33:11;4.32;;;1.00;;
50337;SDS011;46221;51.178;5.900;2022-09-09T12:35:39;4.95;;;1.42;;
50337;SDS011;46221;51.178;5.900;2022-09-09T12:38:09;6.32;;;1.40;;
50337;SDS011;46221;51.178;5.900;2022-09-09T12:40:37;3.88;;;1.10;;
50337;SDS011;46221;51.178;5.900;2022-09-09T12:43:18;5.97;;;1.20;;
50337;SDS011;46221;51.178;5.900;2022-09-09T12:45:46;3.28;;;1.00;;
50337;SDS011;46221;51.178;5.900;2022-09-09T12:48:12;4.72;;;1.27;;
50337;SDS011;46221;51.178;5.900;2022-09-09T12:50:46;7.28;;;1.48;;
50337;SDS011;46221;51.178;5.900;2022-09-09T12:55:56;5.65;;;1.40;;
50337;SDS011;46221;51.178;5.900;2022-09-09T12:58:23;5.95;;;1.05;;
50337;SDS011;46221;51.178;5.900;2022-09-09T13:00:52;3.58;;;0.93;;
50337;SDS011;46221;51.178;5.900;2022-09-09T13:03:19;4.85;;;1.42;;
50337;SDS011;46221;51.178;5.900;2022-09-09T13:05:47;5.40;;;1.45;;
50337;SDS011;46221;51.178;5.900;2022-09-09T13:08:14;4.70;;;1.15;;
50337;SDS011;46221;51.178;5.900;2022-09-09T13:10:46;5.10;;;1.13;;
50337;SDS011;46221;51.178;5.900;2022-09-09T13:13:28;3.60;;;0.95;;
50337;SDS011;46221;51.178;5.900;2022-09-09T13:15:58;5.72;;;1.58;;
50337;SDS011;46221;51.178;5.900;2022-09-09T13:18:29;5.72;;;1.25;;
50337;SDS011;46221;51.178;5.900;2022-09-09T13:20:56;5.28;;;1.25;;
50337;SDS011;46221;51.178;5.900;2022-09-09T13:23:26;2.20;;;1.00;;
50337;SDS011;46221;51.178;5.900;2022-09-09T13:25:57;3.35;;;1.00;;
50337;SDS011;46221;51.178;5.900;2022-09-09T13:28:25;3.22;;;1.20;;
50337;SDS011;46221;51.178;5.900;2022-09-09T13:30:55;4.95;;;1.35;;
50337;SDS011;46221;51.178;5.900;2022-09-09T13:33:29;3.67;;;0.95;;
50337;SDS011;46221;51.178;5.900;2022-09-09T13:35:57;3.00;;;0.88;;
50337;SDS011;46221;51.178;5.900;2022-09-09T13:38:24;3.78;;;0.90;;
50337;SDS011;46221;51.178;5.900;2022-09-09T13:41:02;4.78;;;1.77;;
50337;SDS011;46221;51.178;5.900;2022-09-09T13:43:31;5.13;;;1.05;;
50337;SDS011;46221;51.178;5.900;2022-09-09T13:46:22;4.68;;;1.00;;
50337;SDS011;46221;51.178;5.900;2022-09-09T13:48:54;4.55;;;0.90;;
50337;SDS011;46221;51.178;5.900;2022-09-09T13:51:26;3.17;;;0.80;;
50337;SDS011;46221;51.178;5.900;2022-09-09T13:53:54;4.03;;;0.80;;
50337;SDS011;46221;51.178;5.900;2022-09-09T13:56:21;5.47;;;0.98;;
50337;SDS011;46221;51.178;5.900;2022-09-09T13:58:47;2.58;;;0.88;;
50337;SDS011;46221;51.178;5.900;2022-09-09T14:01:14;3.75;;;0.90;;
50337;SDS011;46221;51.178;5.900;2022-09-09T14:03:40;2.83;;;0.80;;
50337;SDS011;46221;51.178;5.900;2022-09-09T14:06:07;3.50;;;1.50;;
50337;SDS011;46221;51.178;5.900;2022-09-09T14:08:33;2.58;;;0.65;;
50337;SDS011;46221;51.178;5.900;2022-09-09T14:11:03;4.47;;;1.05;;
50337;SDS011;46221;51.178;5.900;2022-09-09T14:13:30;3.60;;;0.93;;
50337;SDS011;46221;51.178;5.900;2022-09-09T14:15:57;3.08;;;0.88;;
50337;SDS011;46221;51.178;5.900;2022-09-09T14:18:23;3.83;;;0.70;;
50337;SDS011;46221;51.178;5.900;2022-09-09T14:20:51;7.22;;;1.15;;
50337;SDS011;46221;51.178;5.900;2022-09-09T14:23:17;4.28;;;1.48;;
50337;SDS011;46221;51.178;5.900;2022-09-09T14:25:44;3.83;;;0.80;;
50337;SDS011;46221;51.178;5.900;2022-09-09T14:28:11;4.05;;;0.98;;
50337;SDS011;46221;51.178;5.900;2022-09-09T14:30:39;2.35;;;0.65;;
50337;SDS011;46221;51.178;5.900;2022-09-09T14:33:06;2.50;;;0.70;;
50337;SDS011;46221;51.178;5.900;2022-09-09T14:35:33;2.83;;;0.82;;
50337;SDS011;46221;51.178;5.900;2022-09-09T14:37:59;4.03;;;1.05;;
50337;SDS011;46221;51.178;5.900;2022-09-09T14:40:27;2.53;;;1.00;;
50337;SDS011;46221;51.178;5.900;2022-09-09T14:42:53;4.50;;;0.88;;
50337;SDS011;46221;51.178;5.900;2022-09-09T14:45:19;2.28;;;0.90;;
50337;SDS011;46221;51.178;5.900;2022-09-09T14:47:47;4.05;;;1.00;;
50337;SDS011;46221;51.178;5.900;2022-09-09T14:50:15;3.42;;;1.20;;
50337;SDS011;46221;51.178;5.900;2022-09-09T14:52:41;3.40;;;1.00;;
50337;SDS011;46221;51.178;5.900;2022-09-09T14:55:07;2.60;;;0.93;;
50337;SDS011;46221;51.178;5.900;2022-09-09T14:57:34;4.38;;;1.10;;
50337;SDS011;46221;51.178;5.900;2022-09-09T15:00:02;4.68;;;1.40;;
50337;SDS011;46221;51.178;5.900;2022-09-09T15:02:29;3.42;;;0.90;;
50337;SDS011;46221;51.178;5.900;2022-09-09T15:04:56;2.88;;;0.90;;
50337;SDS011;46221;51.178;5.900;2022-09-09T15:07:24;4.45;;;1.13;;
50337;SDS011;46221;51.178;5.900;2022-09-09T15:09:51;4.57;;;1.20;;
50337;SDS011;46221;51.178;5.900;2022-09-09T15:12:18;4.25;;;0.98;;
50337;SDS011;46221;51.178;5.900;2022-09-09T15:14:50;5.32;;;1.38;;
50337;SDS011;46221;51.178;5.900;2022-09-09T15:17:16;3.97;;;1.00;;
50337;SDS011;46221;51.178;5.900;2022-09-09T15:19:43;3.20;;;0.90;;
50337;SDS011;46221;51.178;5.900;2022-09-09T15:22:09;3.92;;;1.00;;
50337;SDS011;46221;51.178;5.900;2022-09-09T15:24:35;2.00;;;0.77;;
50337;SDS011;46221;51.178;5.900;2022-09-09T15:27:02;3.47;;;1.15;;
50337;SDS011;46221;51.178;5.900;2022-09-09T15:29:28;4.82;;;1.02;;
50337;SDS011;46221;51.178;5.900;2022-09-09T15:31:55;2.53;;;0.82;;
50337;SDS011;46221;51.178;5.900;2022-09-09T15:34:22;4.13;;;1.17;;
50337;SDS011;46221;51.178;5.900;2022-09-09T15:36:48;2.75;;;0.80;;
50337;SDS011;46221;51.178;5.900;2022-09-09T15:39:15;2.65;;;1.33;;
50337;SDS011;46221;51.178;5.900;2022-09-09T15:41:42;3.58;;;0.98;;
50337;SDS011;46221;51.178;5.900;2022-09-09T15:44:09;2.88;;;1.10;;
50337;SDS011;46221;51.178;5.900;2022-09-09T15:46:58;3.17;;;0.70;;
50337;SDS011;46221;51.178;5.900;2022-09-09T15:49:26;3.30;;;0.88;;
50337;SDS011;46221;51.178;5.900;2022-09-09T15:51:53;5.05;;;0.90;;
50337;SDS011;46221;51.178;5.900;2022-09-09T15:54:20;4.38;;;1.27;;
50337;SDS011;46221;51.178;5.900;2022-09-09T15:56:52;3.78;;;1.13;;
50337;SDS011;46221;51.178;5.900;2022-09-09T15:59:22;3.42;;;0.93;;
50337;SDS011;46221;51.178;5.900;2022-09-09T16:01:49;2.83;;;1.00;;
50337;SDS011;46221;51.178;5.900;2022-09-09T16:04:18;2.63;;;0.80;;
50337;SDS011;46221;51.178;5.900;2022-09-09T16:07:02;2.35;;;0.80;;
50337;SDS011;46221;51.178;5.900;2022-09-09T16:09:29;2.53;;;0.80;;
50337;SDS011;46221;51.178;5.900;2022-09-09T16:11:59;2.80;;;1.00;;
50337;SDS011;46221;51.178;5.900;2022-09-09T16:14:32;4.68;;;0.90;;
50337;SDS011;46221;51.178;5.900;2022-09-09T16:17:02;4.55;;;1.52;;
50337;SDS011;46221;51.178;5.900;2022-09-09T16:19:29;2.92;;;0.95;;
50337;SDS011;46221;51.178;5.900;2022-09-09T16:21:55;3.25;;;1.05;;
50337;SDS011;46221;51.178;5.900;2022-09-09T16:24:22;3.90;;;0.98;;
50337;SDS011;46221;51.178;5.900;2022-09-09T16:26:50;4.10;;;1.00;;
50337;SDS011;46221;51.178;5.900;2022-09-09T16:29:17;3.90;;;1.13;;
50337;SDS011;46221;51.178;5.900;2022-09-09T16:31:45;4.15;;;1.20;;
50337;SDS011;46221;51.178;5.900;2022-09-09T16:34:11;3.85;;;1.02;;
50337;SDS011;46221;51.178;5.900;2022-09-09T16:36:39;3.53;;;1.08;;
50337;SDS011;46221;51.178;5.900;2022-09-09T16:39:07;2.63;;;0.80;;
50337;SDS011;46221;51.178;5.900;2022-09-09T16:41:35;4.05;;;1.00;;
50337;SDS011;46221;51.178;5.900;2022-09-09T16:44:03;3.45;;;0.98;;
50337;SDS011;46221;51.178;5.900;2022-09-09T16:46:30;3.03;;;1.25;;
50337;SDS011;46221;51.178;5.900;2022-09-09T16:48:57;4.35;;;1.75;;
50337;SDS011;46221;51.178;5.900;2022-09-09T16:51:28;3.80;;;1.08;;
50337;SDS011;46221;51.178;5.900;2022-09-09T16:53:55;3.08;;;0.90;;
50337;SDS011;46221;51.178;5.900;2022-09-09T16:56:22;4.15;;;1.15;;